DLH450 EDDF-EGLL
Flight info
| Callsign | DLH450 |
|---|---|
| Flight time | 0h 50m |
| Altitude | 40000 |
| Route | OBOKA3W OBOKA Z29 TORNU DCT ABNED L980 LOGAN |
| Aircraft | A359/H-SDE2E3GHIJ3J4J5LM1ORWXY/LB1D1 |
Departure
| Time | 2026-05-06 08:51 |
|---|---|
| Airport | Frankfurt Main Airport (EDDF) |
Arrival
| Time | 2026-05-06 09:41 |
|---|---|
| Airport | London Heathrow Airport (EGLL) |
| Time | Latitude | Longitude | Altitude | Speed | Heading |
|---|---|---|---|---|---|
| 2026-05-06 08:26 | 50.04762 | 8.56385 | 371 ft | 0 kts | 340° |
| 2026-05-06 08:37 | 50.04754 | 8.56388 | 369 ft | 0 kts | 339° |
| 2026-05-06 08:39 | 50.04751 | 8.56390 | 362 ft | 3 kts | 339° |
| 2026-05-06 08:40 | 50.04730 | 8.56402 | 366 ft | 2 kts | 339° |
| 2026-05-06 08:40 | 50.04706 | 8.56413 | 364 ft | 4 kts | 353° |
| 2026-05-06 08:40 | 50.04679 | 8.56414 | 362 ft | 4 kts | 1° |
| 2026-05-06 08:40 | 50.04660 | 8.56413 | 365 ft | 4 kts | 291° |
| 2026-05-06 08:41 | 50.04657 | 8.56397 | 370 ft | 0 kts | 249° |
| 2026-05-06 08:44 | 50.04656 | 8.56395 | 370 ft | 1 kts | 250° |
| 2026-05-06 08:44 | 50.04647 | 8.56354 | 367 ft | 7 kts | 250° |
| 2026-05-06 08:44 | 50.04623 | 8.56258 | 370 ft | 12 kts | 249° |
| 2026-05-06 08:45 | 50.04588 | 8.56109 | 369 ft | 17 kts | 249° |
| 2026-05-06 08:45 | 50.04524 | 8.55957 | 369 ft | 16 kts | 201° |
| 2026-05-06 08:45 | 50.04406 | 8.55911 | 369 ft | 19 kts | 181° |
| 2026-05-06 08:45 | 50.04277 | 8.55956 | 363 ft | 18 kts | 184° |
| 2026-05-06 08:46 | 50.04147 | 8.55939 | 365 ft | 21 kts | 162° |
| 2026-05-06 08:46 | 50.04088 | 8.55989 | 367 ft | 8 kts | 131° |
| 2026-05-06 08:46 | 50.04082 | 8.56089 | 367 ft | 12 kts | 71° |
| 2026-05-06 08:46 | 50.04118 | 8.56237 | 366 ft | 18 kts | 72° |
| 2026-05-06 08:47 | 50.04167 | 8.56445 | 367 ft | 23 kts | 68° |
| 2026-05-06 08:47 | 50.04228 | 8.56696 | 369 ft | 27 kts | 69° |
| 2026-05-06 08:47 | 50.04303 | 8.56983 | 371 ft | 32 kts | 65° |
| 2026-05-06 08:47 | 50.04384 | 8.57320 | 371 ft | 36 kts | 67° |
| 2026-05-06 08:48 | 50.04424 | 8.57514 | 369 ft | 13 kts | 56° |
| 2026-05-06 08:48 | 50.04462 | 8.57673 | 377 ft | 20 kts | 69° |
| 2026-05-06 08:48 | 50.04519 | 8.57915 | 372 ft | 28 kts | 72° |
| 2026-05-06 08:48 | 50.04595 | 8.58234 | 378 ft | 34 kts | 68° |
| 2026-05-06 08:49 | 50.04652 | 8.58478 | 375 ft | 10 kts | 82° |
| 2026-05-06 08:49 | 50.04600 | 8.58585 | 375 ft | 17 kts | 155° |
| 2026-05-06 08:49 | 50.04486 | 8.58587 | 377 ft | 14 kts | 225° |
| 2026-05-06 08:49 | 50.04458 | 8.58475 | 376 ft | 0 kts | 251° |
| 2026-05-06 08:50 | 50.04450 | 8.58439 | 376 ft | 0 kts | 251° |
| 2026-05-06 08:50 | 50.04398 | 8.58224 | 377 ft | 58 kts | 249° |
| 2026-05-06 08:50 | 50.04172 | 8.57276 | 377 ft | 126 kts | 250° |
| 2026-05-06 08:50 | 50.03797 | 8.55696 | 394 ft | 181 kts | 250° |
| 2026-05-06 08:51 | 50.03344 | 8.53807 | 1022 ft | 183 kts | 247° |
| 2026-05-06 08:51 | 50.02921 | 8.52001 | 1988 ft | 180 kts | 252° |
| 2026-05-06 08:51 | 50.02744 | 8.50011 | 2624 ft | 192 kts | 271° |
| 2026-05-06 08:51 | 50.02859 | 8.47876 | 3178 ft | 204 kts | 277° |
| 2026-05-06 08:52 | 50.03024 | 8.45656 | 3823 ft | 209 kts | 275° |
| 2026-05-06 08:52 | 50.02971 | 8.43390 | 4525 ft | 210 kts | 263° |
| 2026-05-06 08:52 | 50.02732 | 8.41137 | 5219 ft | 212 kts | 260° |
| 2026-05-06 08:52 | 50.02463 | 8.38886 | 5977 ft | 212 kts | 260° |
| 2026-05-06 08:53 | 50.02190 | 8.36624 | 6695 ft | 214 kts | 259° |
| 2026-05-06 08:53 | 50.01912 | 8.34320 | 7392 ft | 219 kts | 259° |
| 2026-05-06 08:53 | 50.01632 | 8.31987 | 8127 ft | 221 kts | 259° |
| 2026-05-06 08:53 | 50.01411 | 8.29610 | 8911 ft | 224 kts | 265° |
| 2026-05-06 08:54 | 50.01582 | 8.27181 | 9709 ft | 231 kts | 284° |
| 2026-05-06 08:54 | 50.02173 | 8.24818 | 10360 ft | 238 kts | 292° |
| 2026-05-06 08:54 | 50.02884 | 8.22432 | 10872 ft | 253 kts | 292° |
| 2026-05-06 08:54 | 50.03667 | 8.19816 | 11171 ft | 280 kts | 293° |
| 2026-05-06 08:55 | 50.04523 | 8.16936 | 11484 ft | 305 kts | 293° |
| 2026-05-06 08:55 | 50.05452 | 8.13826 | 11808 ft | 329 kts | 294° |
| 2026-05-06 08:55 | 50.06691 | 8.10709 | 12369 ft | 347 kts | 305° |
| 2026-05-06 08:55 | 50.08690 | 8.06788 | 13416 ft | 356 kts | 308° |
| 2026-05-06 08:56 | 50.15057 | 7.94486 | 16369 ft | 374 kts | 307° |
| 2026-05-06 08:56 | 50.21710 | 7.81496 | 19318 ft | 391 kts | 306° |
| 2026-05-06 08:56 | 50.30214 | 7.70664 | 22130 ft | 417 kts | 334° |
| 2026-05-06 08:56 | 50.41048 | 7.63330 | 24640 ft | 431 kts | 334° |
| 2026-05-06 08:57 | 50.52192 | 7.55657 | 26923 ft | 443 kts | 334° |
| 2026-05-06 08:57 | 50.62936 | 7.45908 | 29103 ft | 451 kts | 326° |
| 2026-05-06 08:57 | 50.73402 | 7.34321 | 30719 ft | 468 kts | 316° |
| 2026-05-06 08:57 | 50.80324 | 7.16819 | 32293 ft | 475 kts | 297° |
| 2026-05-06 08:58 | 50.86362 | 6.98018 | 33729 ft | 485 kts | 296° |
| 2026-05-06 08:58 | 50.92517 | 6.78859 | 34933 ft | 487 kts | 296° |
| 2026-05-06 08:58 | 50.98652 | 6.59628 | 36155 ft | 488 kts | 296° |
| 2026-05-06 08:58 | 51.04752 | 6.40336 | 37311 ft | 490 kts | 295° |
| 2026-05-06 08:59 | 51.10833 | 6.20946 | 38292 ft | 490 kts | 295° |
| 2026-05-06 08:59 | 51.15721 | 6.00849 | 39113 ft | 485 kts | 284° |
| 2026-05-06 08:59 | 51.19437 | 5.80237 | 39771 ft | 487 kts | 290° |
| 2026-05-06 09:00 | 51.29790 | 5.40551 | 39834 ft | 487 kts | 292° |
| 2026-05-06 09:00 | 51.40127 | 5.00491 | 39857 ft | 488 kts | 292° |
| 2026-05-06 09:01 | 51.50395 | 4.59982 | 39858 ft | 487 kts | 291° |
| 2026-05-06 09:01 | 51.60393 | 4.19820 | 39858 ft | 487 kts | 291° |
| 2026-05-06 09:02 | 51.65820 | 3.97707 | 39869 ft | 487 kts | 291° |
| 2026-05-06 09:02 | 51.68294 | 3.87553 | 39869 ft | 487 kts | 291° |
| 2026-05-06 09:03 | 51.70760 | 3.77386 | 39874 ft | 487 kts | 291° |
| 2026-05-06 09:03 | 51.73216 | 3.67210 | 39883 ft | 487 kts | 290° |
| 2026-05-06 09:04 | 51.75412 | 3.58070 | 39880 ft | 487 kts | 291° |
| 2026-05-06 09:04 | 51.77844 | 3.47909 | 39890 ft | 486 kts | 290° |
| 2026-05-06 09:05 | 51.80270 | 3.37724 | 39894 ft | 486 kts | 290° |
| 2026-05-06 09:05 | 51.82678 | 3.27563 | 39904 ft | 483 kts | 290° |
| 2026-05-06 09:06 | 51.84450 | 3.17144 | 39903 ft | 481 kts | 277° |
| 2026-05-06 09:06 | 51.84444 | 3.06374 | 39921 ft | 478 kts | 265° |
| 2026-05-06 09:07 | 51.83795 | 2.95708 | 39918 ft | 476 kts | 264° |
| 2026-05-06 09:07 | 51.83045 | 2.85066 | 39926 ft | 476 kts | 264° |
| 2026-05-06 09:08 | 51.82302 | 2.74424 | 39926 ft | 477 kts | 264° |
| 2026-05-06 09:08 | 51.81579 | 2.63829 | 39245 ft | 472 kts | 264° |
| 2026-05-06 09:08 | 51.81218 | 2.58525 | 38368 ft | 477 kts | 264° |
| 2026-05-06 09:09 | 51.80850 | 2.53183 | 37360 ft | 480 kts | 264° |
| 2026-05-06 09:09 | 51.80478 | 2.47813 | 36478 ft | 480 kts | 264° |
| 2026-05-06 09:09 | 51.80105 | 2.42461 | 35571 ft | 482 kts | 264° |
| 2026-05-06 09:09 | 51.79727 | 2.37067 | 34641 ft | 483 kts | 264° |
| 2026-05-06 09:10 | 51.79344 | 2.31673 | 33755 ft | 483 kts | 264° |
| 2026-05-06 09:10 | 51.78961 | 2.26366 | 32856 ft | 482 kts | 263° |
| 2026-05-06 09:10 | 51.78571 | 2.20997 | 32003 ft | 480 kts | 264° |
| 2026-05-06 09:10 | 51.78213 | 2.15585 | 31331 ft | 475 kts | 264° |
| 2026-05-06 09:11 | 51.77892 | 2.10376 | 30744 ft | 470 kts | 264° |
| 2026-05-06 09:11 | 51.77571 | 2.05086 | 30147 ft | 465 kts | 264° |
| 2026-05-06 09:11 | 51.77263 | 1.99984 | 29486 ft | 460 kts | 264° |
| 2026-05-06 09:11 | 51.76950 | 1.94811 | 28860 ft | 455 kts | 264° |
| 2026-05-06 09:12 | 51.76642 | 1.89755 | 28284 ft | 449 kts | 265° |
| 2026-05-06 09:12 | 51.76337 | 1.84770 | 27692 ft | 443 kts | 265° |
| 2026-05-06 09:12 | 51.76035 | 1.79855 | 27118 ft | 438 kts | 264° |
| 2026-05-06 09:12 | 51.75735 | 1.75005 | 26547 ft | 432 kts | 264° |
| 2026-05-06 09:13 | 51.75440 | 1.70266 | 26000 ft | 427 kts | 264° |
| 2026-05-06 09:13 | 51.75138 | 1.65451 | 25427 ft | 423 kts | 264° |
| 2026-05-06 09:13 | 51.74848 | 1.60823 | 24871 ft | 419 kts | 264° |
| 2026-05-06 09:13 | 51.74556 | 1.56146 | 24261 ft | 420 kts | 264° |
| 2026-05-06 09:14 | 51.74254 | 1.51462 | 23624 ft | 420 kts | 264° |
| 2026-05-06 09:14 | 51.73950 | 1.46783 | 22925 ft | 418 kts | 264° |
| 2026-05-06 09:14 | 51.73648 | 1.42147 | 22292 ft | 414 kts | 264° |
| 2026-05-06 09:14 | 51.73347 | 1.37550 | 21671 ft | 410 kts | 264° |
| 2026-05-06 09:15 | 51.73049 | 1.33012 | 21066 ft | 405 kts | 264° |
| 2026-05-06 09:15 | 51.72752 | 1.28526 | 20453 ft | 400 kts | 264° |
| 2026-05-06 09:15 | 51.72458 | 1.24082 | 19864 ft | 397 kts | 265° |
| 2026-05-06 09:15 | 51.72164 | 1.19681 | 19271 ft | 394 kts | 265° |
| 2026-05-06 09:16 | 51.71870 | 1.15310 | 18687 ft | 390 kts | 265° |
| 2026-05-06 09:16 | 51.71578 | 1.10987 | 18085 ft | 386 kts | 265° |
| 2026-05-06 09:16 | 51.71288 | 1.06704 | 17472 ft | 382 kts | 265° |
| 2026-05-06 09:16 | 51.70999 | 1.02451 | 16892 ft | 381 kts | 265° |
| 2026-05-06 09:17 | 51.70709 | 0.98222 | 16335 ft | 378 kts | 265° |
| 2026-05-06 09:17 | 51.70421 | 0.94038 | 16015 ft | 373 kts | 265° |
| 2026-05-06 09:17 | 51.70138 | 0.89884 | 15962 ft | 374 kts | 265° |
| 2026-05-06 09:17 | 51.69848 | 0.85720 | 15961 ft | 374 kts | 265° |
| 2026-05-06 09:18 | 51.69555 | 0.81549 | 15963 ft | 374 kts | 265° |
| 2026-05-06 09:18 | 51.69262 | 0.77386 | 15965 ft | 374 kts | 265° |
| 2026-05-06 09:18 | 51.68968 | 0.73240 | 15964 ft | 372 kts | 265° |
| 2026-05-06 09:18 | 51.68673 | 0.69088 | 15966 ft | 373 kts | 265° |
| 2026-05-06 09:19 | 51.68380 | 0.64939 | 15966 ft | 374 kts | 265° |
| 2026-05-06 09:19 | 51.68081 | 0.60771 | 15964 ft | 374 kts | 265° |
| 2026-05-06 09:19 | 51.67780 | 0.56616 | 15966 ft | 370 kts | 265° |
| 2026-05-06 09:19 | 51.67488 | 0.52614 | 15973 ft | 349 kts | 265° |
| 2026-05-06 09:20 | 51.67213 | 0.48839 | 15978 ft | 330 kts | 265° |
| 2026-05-06 09:20 | 51.66983 | 0.45271 | 15975 ft | 312 kts | 268° |
| 2026-05-06 09:20 | 51.66772 | 0.41836 | 15974 ft | 306 kts | 268° |
| 2026-05-06 09:20 | 51.66549 | 0.38439 | 15969 ft | 305 kts | 268° |
| 2026-05-06 09:21 | 51.66315 | 0.35063 | 15919 ft | 300 kts | 268° |
| 2026-05-06 09:21 | 51.66081 | 0.31801 | 15491 ft | 297 kts | 268° |
| 2026-05-06 09:21 | 51.65838 | 0.28484 | 14876 ft | 301 kts | 268° |
| 2026-05-06 09:21 | 51.65589 | 0.25142 | 14417 ft | 300 kts | 267° |
| 2026-05-06 09:22 | 51.65329 | 0.21809 | 13899 ft | 301 kts | 266° |
| 2026-05-06 09:22 | 51.65028 | 0.18508 | 13609 ft | 293 kts | 266° |
| 2026-05-06 09:22 | 51.64702 | 0.15328 | 13405 ft | 283 kts | 265° |
| 2026-05-06 09:22 | 51.64347 | 0.12277 | 13231 ft | 272 kts | 264° |
| 2026-05-06 09:23 | 51.63966 | 0.09351 | 12987 ft | 264 kts | 262° |
| 2026-05-06 09:23 | 51.63578 | 0.06476 | 12607 ft | 262 kts | 263° |
| 2026-05-06 09:23 | 51.63188 | 0.03630 | 12219 ft | 260 kts | 263° |
| 2026-05-06 09:23 | 51.62797 | 0.00788 | 11846 ft | 259 kts | 263° |
| 2026-05-06 09:24 | 51.62406 | -0.02031 | 11481 ft | 257 kts | 263° |
| 2026-05-06 09:24 | 51.62009 | -0.04830 | 11097 ft | 256 kts | 264° |
| 2026-05-06 09:24 | 51.61607 | -0.07615 | 10737 ft | 255 kts | 263° |
| 2026-05-06 09:24 | 51.61191 | -0.10377 | 10383 ft | 253 kts | 262° |
| 2026-05-06 09:25 | 51.60787 | -0.13129 | 9980 ft | 253 kts | 263° |
| 2026-05-06 09:25 | 51.60383 | -0.15879 | 9597 ft | 252 kts | 263° |
| 2026-05-06 09:25 | 51.59987 | -0.18614 | 9214 ft | 250 kts | 263° |
| 2026-05-06 09:25 | 51.59594 | -0.21330 | 8837 ft | 249 kts | 263° |
| 2026-05-06 09:26 | 51.59189 | -0.24021 | 8472 ft | 247 kts | 263° |
| 2026-05-06 09:26 | 51.58919 | -0.25795 | 8226 ft | 245 kts | 263° |
| 2026-05-06 09:26 | 51.58511 | -0.28449 | 7861 ft | 243 kts | 263° |
| 2026-05-06 09:26 | 51.58105 | -0.31076 | 7530 ft | 242 kts | 263° |
| 2026-05-06 09:27 | 51.57695 | -0.33684 | 7178 ft | 240 kts | 263° |
| 2026-05-06 09:27 | 51.57277 | -0.36271 | 7005 ft | 239 kts | 263° |
| 2026-05-06 09:27 | 51.56859 | -0.38862 | 6992 ft | 239 kts | 263° |
| 2026-05-06 09:27 | 51.56444 | -0.41442 | 6992 ft | 238 kts | 263° |
| 2026-05-06 09:28 | 51.56030 | -0.44018 | 6990 ft | 238 kts | 263° |
| 2026-05-06 09:28 | 51.55615 | -0.46593 | 6994 ft | 238 kts | 263° |
| 2026-05-06 09:28 | 51.55200 | -0.49171 | 6994 ft | 239 kts | 263° |
| 2026-05-06 09:28 | 51.54787 | -0.51749 | 6992 ft | 238 kts | 263° |
| 2026-05-06 09:29 | 51.54371 | -0.54332 | 6995 ft | 239 kts | 263° |
| 2026-05-06 09:29 | 51.53954 | -0.56912 | 6993 ft | 239 kts | 263° |
| 2026-05-06 09:29 | 51.53546 | -0.59496 | 6998 ft | 238 kts | 265° |
| 2026-05-06 09:29 | 51.53458 | -0.62086 | 6963 ft | 230 kts | 281° |
| 2026-05-06 09:30 | 51.53586 | -0.64634 | 6596 ft | 230 kts | 283° |
| 2026-05-06 09:30 | 51.53737 | -0.67157 | 6221 ft | 230 kts | 283° |
| 2026-05-06 09:30 | 51.53887 | -0.69699 | 5856 ft | 229 kts | 283° |
| 2026-05-06 09:30 | 51.54032 | -0.72279 | 5472 ft | 229 kts | 283° |
| 2026-05-06 09:31 | 51.54166 | -0.74800 | 5080 ft | 229 kts | 283° |
| 2026-05-06 09:31 | 51.54293 | -0.77350 | 4719 ft | 229 kts | 283° |
| 2026-05-06 09:31 | 51.54411 | -0.79937 | 4316 ft | 230 kts | 282° |
| 2026-05-06 09:31 | 51.54219 | -0.82503 | 3798 ft | 242 kts | 257° |
| 2026-05-06 09:32 | 51.53307 | -0.84829 | 3451 ft | 247 kts | 231° |
| 2026-05-06 09:32 | 51.51851 | -0.86373 | 3050 ft | 269 kts | 205° |
| 2026-05-06 09:32 | 51.49980 | -0.86928 | 2978 ft | 277 kts | 181° |
| 2026-05-06 09:32 | 51.48113 | -0.86339 | 2986 ft | 274 kts | 159° |
| 2026-05-06 09:33 | 51.46518 | -0.84713 | 3000 ft | 271 kts | 137° |
| 2026-05-06 09:33 | 51.45251 | -0.82527 | 2997 ft | 266 kts | 129° |
| 2026-05-06 09:33 | 51.44123 | -0.80188 | 2995 ft | 264 kts | 126° |
| 2026-05-06 09:33 | 51.43068 | -0.77860 | 2994 ft | 248 kts | 125° |
| 2026-05-06 09:34 | 51.42116 | -0.75665 | 2995 ft | 233 kts | 123° |
| 2026-05-06 09:34 | 51.41200 | -0.73542 | 2999 ft | 232 kts | 128° |
| 2026-05-06 09:34 | 51.39883 | -0.72112 | 2997 ft | 233 kts | 165° |
| 2026-05-06 09:34 | 51.38283 | -0.72180 | 2991 ft | 234 kts | 203° |
| 2026-05-06 09:35 | 51.37009 | -0.73711 | 2993 ft | 230 kts | 242° |
| 2026-05-06 09:35 | 51.36555 | -0.76076 | 2993 ft | 225 kts | 279° |
| 2026-05-06 09:35 | 51.37101 | -0.78462 | 2984 ft | 237 kts | 315° |
| 2026-05-06 09:35 | 51.38451 | -0.79906 | 2983 ft | 237 kts | 349° |
| 2026-05-06 09:36 | 51.40063 | -0.79795 | 2989 ft | 235 kts | 24° |
| 2026-05-06 09:36 | 51.41443 | -0.78386 | 2981 ft | 239 kts | 41° |
| 2026-05-06 09:36 | 51.42673 | -0.76714 | 2990 ft | 223 kts | 43° |
| 2026-05-06 09:36 | 51.43799 | -0.75144 | 2998 ft | 206 kts | 43° |
| 2026-05-06 09:37 | 51.44835 | -0.73691 | 2975 ft | 190 kts | 43° |
| 2026-05-06 09:37 | 51.45763 | -0.72271 | 2867 ft | 180 kts | 53° |
| 2026-05-06 09:37 | 51.46406 | -0.70624 | 2757 ft | 170 kts | 62° |
| 2026-05-06 09:37 | 51.46962 | -0.68951 | 2511 ft | 169 kts | 63° |
| 2026-05-06 09:38 | 51.47440 | -0.67261 | 2287 ft | 166 kts | 72° |
| 2026-05-06 09:38 | 51.47659 | -0.65426 | 2029 ft | 168 kts | 89° |
| 2026-05-06 09:38 | 51.47646 | -0.63574 | 1949 ft | 167 kts | 89° |
| 2026-05-06 09:38 | 51.47690 | -0.61681 | 1762 ft | 174 kts | 90° |
| 2026-05-06 09:39 | 51.47685 | -0.59807 | 1510 ft | 160 kts | 90° |
| 2026-05-06 09:39 | 51.47693 | -0.58108 | 1314 ft | 146 kts | 89° |
| 2026-05-06 09:39 | 51.47705 | -0.56554 | 1115 ft | 135 kts | 89° |
| 2026-05-06 09:39 | 51.47713 | -0.55083 | 931 ft | 130 kts | 89° |
| 2026-05-06 09:40 | 51.47720 | -0.53627 | 750 ft | 131 kts | 88° |
| 2026-05-06 09:40 | 51.47727 | -0.52147 | 577 ft | 133 kts | 88° |
| 2026-05-06 09:40 | 51.47740 | -0.49182 | 225 ft | 135 kts | 87° |
| 2026-05-06 09:41 | 51.47748 | -0.47699 | 114 ft | 127 kts | 86° |
| 2026-05-06 09:41 | 51.47755 | -0.46393 | 100 ft | 96 kts | 90° |
| 2026-05-06 09:41 | 51.47759 | -0.45588 | 94 ft | 60 kts | 90° |
| 2026-05-06 09:41 | 51.47761 | -0.44997 | 98 ft | 42 kts | 95° |
| 2026-05-06 09:42 | 51.47670 | -0.44811 | 102 ft | 2 kts | 140° |
| 2026-05-06 09:44 | 51.47658 | -0.44800 | 103 ft | 7 kts | 150° |
| 2026-05-06 09:44 | 51.47579 | -0.44737 | 98 ft | 8 kts | 137° |
| 2026-05-06 09:45 | 51.47512 | -0.44607 | 95 ft | 20 kts | 131° |
| 2026-05-06 09:45 | 51.47405 | -0.44557 | 94 ft | 10 kts | 189° |
| 2026-05-06 09:45 | 51.47327 | -0.44553 | 94 ft | 14 kts | 181° |
| 2026-05-06 09:45 | 51.47214 | -0.44554 | 94 ft | 19 kts | 179° |
| 2026-05-06 09:46 | 51.47072 | -0.44554 | 91 ft | 19 kts | 181° |
| 2026-05-06 09:46 | 51.47017 | -0.44555 | 91 ft | 0 kts | 180° |
| 2026-05-06 09:46 | 51.47012 | -0.44555 | 91 ft | 1 kts | 180° |
| 2026-05-06 09:46 | 51.46989 | -0.44556 | 93 ft | 6 kts | 180° |
| 2026-05-06 09:47 | 51.46966 | -0.44563 | 91 ft | 3 kts | 206° |
| 2026-05-06 09:47 | 51.46942 | -0.44581 | 96 ft | 4 kts | 212° |
| 2026-05-06 09:47 | 51.46939 | -0.44608 | 95 ft | 4 kts | 261° |
| 2026-05-06 09:47 | 51.46937 | -0.44672 | 94 ft | 6 kts | 269° |
| 2026-05-06 09:48 | 51.46937 | -0.44683 | 94 ft | 1 kts | 270° |
| 2026-05-06 09:48 | 51.46937 | -0.44694 | 94 ft | 1 kts | 270° |
| 2026-05-06 09:48 | 51.46937 | -0.44708 | 95 ft | 0 kts | 270° |
| 2026-05-06 09:48 | 51.46937 | -0.44713 | 95 ft | 0 kts | 270° |